createdAt,value
2022-08-07T00:01:12.640Z,13.63
2022-08-07T00:03:51.611Z,11.07
2022-08-07T00:06:18.672Z,7.95
2022-08-07T00:09:16.631Z,11.35
2022-08-07T00:11:55.704Z,7.85
2022-08-07T00:14:25.402Z,8.38
2022-08-07T00:16:52.724Z,10.55
2022-08-07T00:19:21.499Z,8.00
2022-08-07T00:21:56.421Z,7.95
2022-08-07T00:24:28.892Z,7.07
2022-08-07T00:27:07.592Z,8.05
2022-08-07T00:29:37.211Z,9.52
2022-08-07T00:32:05.865Z,5.85
2022-08-07T00:34:35.646Z,5.57
2022-08-07T00:37:02.873Z,6.00
2022-08-07T00:39:32.178Z,6.57
2022-08-07T00:42:02.008Z,5.53
2022-08-07T00:44:33.363Z,5.30
2022-08-07T00:47:06.493Z,6.90
2022-08-07T00:50:19.216Z,5.75
2022-08-07T00:52:38.695Z,3.85
2022-08-07T00:55:10.690Z,5.72
2022-08-07T00:57:37.637Z,5.57
2022-08-07T01:00:11.745Z,3.95
2022-08-07T01:02:39.659Z,4.05
2022-08-07T01:05:19.167Z,3.92
2022-08-07T01:07:46.755Z,4.57
2022-08-07T01:10:17.191Z,3.53
2022-08-07T01:12:54.059Z,3.85
2022-08-07T01:15:36.005Z,2.92
2022-08-07T01:18:10.831Z,3.03
2022-08-07T01:20:59.167Z,3.08
2022-08-07T01:23:38.006Z,4.38
2022-08-07T01:26:08.526Z,4.00
2022-08-07T01:28:40.000Z,2.55
2022-08-07T01:31:15.427Z,5.35
2022-08-07T01:33:55.007Z,4.00
2022-08-07T01:36:33.818Z,3.15
2022-08-07T01:39:10.089Z,2.97
2022-08-07T01:41:39.029Z,4.50
2022-08-07T01:44:08.109Z,3.60
2022-08-07T01:46:34.873Z,3.10
2022-08-07T01:49:02.459Z,2.58
2022-08-07T01:52:02.542Z,2.50
2022-08-07T01:54:33.146Z,2.45
2022-08-07T01:57:24.623Z,2.70
2022-08-07T02:00:13.714Z,3.13
2022-08-07T02:03:19.442Z,2.78
2022-08-07T02:05:43.042Z,2.97
2022-08-07T02:08:17.476Z,2.75
2022-08-07T02:10:48.777Z,1.80
2022-08-07T02:13:47.022Z,4.10
2022-08-07T02:16:12.131Z,2.03
2022-08-07T02:18:46.915Z,4.35
2022-08-07T02:21:16.668Z,3.92
2022-08-07T02:23:44.848Z,2.53
2022-08-07T02:26:34.102Z,3.20
2022-08-07T02:29:00.744Z,2.20
2022-08-07T02:31:29.359Z,1.92
2022-08-07T02:34:02.912Z,3.30
2022-08-07T02:36:32.718Z,2.45
2022-08-07T02:39:02.120Z,1.65
2022-08-07T02:41:50.588Z,1.63
2022-08-07T02:44:21.910Z,2.45
2022-08-07T02:46:52.768Z,2.15
2022-08-07T02:49:28.763Z,3.63
2022-08-07T02:51:58.838Z,2.55
2022-08-07T02:54:29.008Z,1.90
2022-08-07T02:56:57.968Z,3.13
2022-08-07T02:59:27.693Z,2.47
2022-08-07T03:01:56.220Z,3.08
2022-08-07T03:04:25.055Z,4.53
2022-08-07T03:06:54.003Z,1.63
2022-08-07T03:09:41.801Z,1.67
2022-08-07T03:12:14.230Z,3.05
2022-08-07T03:14:52.463Z,2.00
2022-08-07T03:17:20.139Z,1.30
2022-08-07T03:19:54.732Z,1.58
2022-08-07T03:22:23.143Z,3.70
2022-08-07T03:24:51.127Z,1.73
2022-08-07T03:27:30.762Z,1.13
2022-08-07T03:30:06.356Z,0.98
2022-08-07T03:32:39.608Z,2.50
2022-08-07T03:35:26.289Z,1.15
2022-08-07T03:37:58.147Z,1.98
2022-08-07T03:40:30.823Z,0.85
2022-08-07T03:43:03.544Z,3.58
2022-08-07T03:45:31.585Z,2.28
2022-08-07T03:48:00.264Z,1.10
2022-08-07T03:50:28.614Z,0.80
2022-08-07T03:53:00.059Z,1.25
2022-08-07T03:55:57.709Z,2.00
2022-08-07T03:58:33.101Z,1.75
2022-08-07T04:01:07.534Z,0.98
2022-08-07T04:03:38.913Z,1.20
2022-08-07T04:06:37.740Z,2.08
2022-08-07T04:09:15.846Z,2.20
2022-08-07T04:12:25.701Z,2.80
2022-08-07T04:14:38.402Z,1.80
2022-08-07T04:17:20.137Z,2.63
2022-08-07T04:19:51.929Z,1.10
2022-08-07T04:22:20.155Z,1.20
2022-08-07T04:24:50.690Z,1.30
2022-08-07T04:27:25.538Z,1.30
2022-08-07T04:30:02.381Z,1.25
2022-08-07T04:32:34.577Z,2.65
2022-08-07T04:35:03.921Z,1.30
2022-08-07T04:38:00.842Z,1.15
2022-08-07T04:40:20.174Z,1.25
2022-08-07T04:42:51.825Z,1.25
2022-08-07T04:45:44.394Z,1.05
2022-08-07T04:48:13.446Z,3.55
2022-08-07T04:51:16.023Z,1.40
2022-08-07T04:54:08.044Z,1.60
2022-08-07T04:58:11.571Z,1.30
2022-08-07T05:00:12.344Z,1.42
2022-08-07T05:02:30.420Z,1.67
2022-08-07T05:05:53.477Z,1.65
2022-08-07T05:08:08.512Z,1.92
2022-08-07T05:10:47.446Z,1.55
2022-08-07T05:14:53.106Z,1.60
2022-08-07T05:16:11.712Z,1.52
2022-08-07T05:18:44.865Z,1.52
2022-08-07T05:21:12.835Z,1.42
2022-08-07T05:23:50.049Z,1.45
2022-08-07T05:26:24.194Z,1.63
2022-08-07T05:28:57.302Z,1.10
2022-08-07T05:31:34.542Z,1.52
2022-08-07T05:34:05.906Z,2.80
2022-08-07T05:36:39.574Z,1.23
2022-08-07T05:39:09.246Z,2.50
2022-08-07T05:42:01.209Z,1.27
2022-08-07T05:44:35.167Z,1.38
2022-08-07T05:47:17.872Z,2.22
2022-08-07T05:49:51.160Z,0.90
2022-08-07T05:52:20.308Z,1.08
2022-08-07T05:54:56.087Z,3.05
2022-08-07T05:57:30.116Z,1.27
2022-08-07T06:00:01.444Z,1.05
2022-08-07T06:02:31.120Z,1.30
2022-08-07T06:05:03.363Z,0.88
2022-08-07T06:08:09.297Z,1.02
2022-08-07T06:10:18.114Z,1.85
2022-08-07T06:12:46.165Z,1.02
2022-08-07T06:15:16.324Z,1.00
2022-08-07T06:17:53.364Z,3.42
2022-08-07T06:20:31.998Z,0.98
2022-08-07T06:23:45.827Z,0.98
2022-08-07T06:25:58.031Z,3.05
2022-08-07T06:28:28.135Z,1.05
2022-08-07T06:30:55.689Z,1.77
2022-08-07T06:33:23.564Z,1.10
2022-08-07T06:36:13.581Z,1.10
2022-08-07T06:38:37.680Z,0.90
2022-08-07T06:41:13.176Z,0.70
2022-08-07T06:43:46.146Z,4.40
2022-08-07T06:46:14.182Z,0.85
2022-08-07T06:48:42.135Z,1.10
2022-08-07T06:51:31.015Z,0.95
2022-08-07T06:55:32.466Z,1.20
2022-08-07T06:56:51.680Z,1.30
2022-08-07T07:00:13.502Z,1.27
2022-08-07T07:02:48.704Z,1.38
2022-08-07T07:05:06.919Z,1.50
2022-08-07T07:07:58.333Z,2.70
2022-08-07T07:10:33.275Z,4.90
2022-08-07T07:13:17.201Z,1.52
2022-08-07T07:16:12.257Z,1.20
2022-08-07T07:18:51.948Z,2.78
2022-08-07T07:21:21.225Z,2.40
2022-08-07T07:24:09.176Z,3.10
2022-08-07T07:26:41.044Z,1.75
2022-08-07T07:29:56.058Z,1.70
2022-08-07T07:32:10.405Z,1.30
2022-08-07T07:34:39.659Z,1.45
2022-08-07T07:37:21.855Z,1.83
2022-08-07T07:39:58.942Z,1.83
2022-08-07T07:42:33.079Z,2.28
2022-08-07T07:45:05.204Z,1.75
2022-08-07T07:47:52.236Z,2.25
2022-08-07T07:50:34.081Z,2.75
2022-08-07T07:53:20.736Z,8.20
2022-08-07T07:56:00.955Z,1.05
2022-08-07T07:58:36.881Z,4.55
2022-08-07T08:02:01.528Z,0.80
2022-08-07T08:04:06.580Z,1.23
2022-08-07T08:06:40.730Z,3.75
2022-08-07T08:09:20.601Z,0.80
2022-08-07T08:12:02.222Z,1.05
2022-08-07T08:14:31.844Z,1.52
2022-08-07T08:17:55.953Z,1.48
2022-08-07T08:20:17.173Z,1.13
2022-08-07T08:23:02.423Z,1.83
2022-08-07T08:25:52.240Z,1.70
2022-08-07T08:28:38.281Z,1.13
2022-08-07T08:31:07.307Z,1.52
2022-08-07T08:33:41.746Z,0.90
2022-08-07T08:36:19.093Z,1.10
2022-08-07T08:38:54.160Z,0.85
2022-08-07T08:41:31.457Z,2.00
2022-08-07T08:44:29.702Z,0.93
2022-08-07T08:47:03.859Z,2.08
2022-08-07T08:49:57.220Z,1.63
2022-08-07T08:52:30.251Z,1.85
2022-08-07T08:55:08.149Z,4.53
2022-08-07T08:57:35.709Z,1.02
2022-08-07T09:00:08.157Z,0.93
2022-08-07T09:02:58.617Z,3.08
2022-08-07T09:05:46.159Z,1.00
2022-08-07T09:08:28.259Z,0.80
2022-08-07T09:11:24.219Z,2.13
2022-08-07T09:14:12.380Z,1.45
2022-08-07T09:17:05.368Z,1.10
2022-08-07T09:19:59.215Z,0.98
2022-08-07T09:24:33.732Z,2.80
2022-08-07T09:25:27.216Z,0.55
2022-08-07T09:28:03.970Z,0.70
2022-08-07T09:31:15.551Z,0.85
2022-08-07T09:34:03.977Z,0.90
2022-08-07T09:36:46.933Z,1.13
2022-08-07T09:39:54.189Z,0.60
2022-08-07T09:42:39.057Z,0.85
2022-08-07T09:47:24.304Z,1.17
2022-08-07T09:50:00.886Z,0.70
2022-08-07T09:52:15.299Z,1.10
2022-08-07T09:54:54.394Z,0.90
2022-08-07T09:57:29.868Z,1.23
2022-08-07T10:00:14.756Z,0.75
2022-08-07T10:03:08.322Z,1.50
2022-08-07T10:06:11.835Z,2.97
2022-08-07T10:09:02.711Z,1.13
2022-08-07T10:12:02.101Z,1.27
2022-08-07T10:15:06.488Z,0.63
2022-08-07T10:18:01.830Z,0.98
2022-08-07T10:21:19.535Z,1.33
2022-08-07T10:24:22.546Z,0.90
2022-08-07T10:26:59.274Z,0.50
2022-08-07T10:29:35.493Z,0.80
2022-08-07T10:32:52.607Z,1.50
2022-08-07T10:35:25.497Z,0.88
2022-08-07T10:38:21.733Z,0.75
2022-08-07T10:41:14.850Z,0.50
2022-08-07T10:44:07.761Z,0.50
2022-08-07T10:46:43.630Z,1.45
2022-08-07T10:49:49.147Z,1.13
2022-08-07T10:52:37.543Z,1.27
2022-08-07T10:55:37.760Z,0.70
2022-08-07T10:58:40.206Z,0.68
2022-08-07T11:01:51.535Z,0.70
2022-08-07T11:04:41.110Z,0.68
2022-08-07T11:07:24.871Z,0.85
2022-08-07T11:10:08.672Z,1.75
2022-08-07T11:12:46.177Z,1.00
2022-08-07T11:15:21.480Z,1.15
2022-08-07T11:18:09.979Z,1.33
2022-08-07T11:20:52.516Z,1.23
2022-08-07T11:23:38.429Z,1.85
2022-08-07T11:26:26.526Z,1.90
2022-08-07T11:29:13.145Z,0.80
2022-08-07T11:32:06.477Z,1.83
2022-08-07T11:34:48.684Z,1.05
2022-08-07T11:37:58.356Z,3.08
2022-08-07T11:40:37.490Z,0.90
2022-08-07T11:43:15.543Z,0.85
2022-08-07T11:46:01.217Z,1.10
2022-08-07T11:49:50.065Z,1.75
2022-08-07T11:51:52.647Z,0.93
2022-08-07T11:54:38.346Z,1.25
2022-08-07T11:57:57.790Z,1.02
2022-08-07T12:00:38.086Z,0.85
2022-08-07T12:03:42.060Z,1.30
2022-08-07T12:06:37.086Z,1.48
2022-08-07T12:09:33.958Z,0.88
2022-08-07T12:12:09.232Z,2.67
2022-08-07T12:15:08.162Z,1.25
2022-08-07T12:17:59.318Z,0.65
2022-08-07T12:20:49.350Z,0.88
2022-08-07T12:24:04.935Z,0.98
2022-08-07T12:26:42.005Z,1.08
2022-08-07T12:29:14.146Z,2.78
2022-08-07T12:32:02.594Z,1.35
2022-08-07T12:34:33.663Z,0.80
2022-08-07T12:37:02.062Z,0.70
2022-08-07T12:39:42.525Z,1.70
2022-08-07T12:42:12.121Z,2.13
2022-08-07T12:44:45.209Z,1.48
2022-08-07T12:47:32.817Z,0.65
2022-08-07T12:50:38.160Z,2.13
2022-08-07T12:53:22.369Z,0.77
2022-08-07T12:56:10.446Z,1.02
2022-08-07T12:58:43.956Z,1.55
2022-08-07T13:01:18.222Z,0.70
2022-08-07T13:04:02.293Z,1.35
2022-08-07T13:06:54.264Z,0.80
2022-08-07T13:10:17.387Z,1.00
2022-08-07T13:12:25.777Z,2.10
2022-08-07T13:15:14.734Z,1.10
2022-08-07T13:17:59.335Z,4.13
2022-08-07T13:20:46.483Z,1.27
2022-08-07T13:24:00.578Z,1.92
2022-08-07T13:26:33.452Z,2.28
2022-08-07T13:29:12.370Z,1.00
2022-08-07T13:32:00.181Z,0.65
2022-08-07T13:34:51.104Z,0.70
2022-08-07T13:37:44.041Z,0.60
2022-08-07T13:40:34.885Z,0.60
2022-08-07T13:43:11.837Z,1.67
2022-08-07T13:46:12.156Z,0.60
2022-08-07T13:48:34.543Z,2.83
2022-08-07T13:51:27.076Z,0.98
2022-08-07T13:54:00.406Z,1.10
2022-08-07T13:56:35.925Z,0.73
2022-08-07T13:59:18.127Z,0.60
2022-08-07T14:01:51.265Z,0.60
2022-08-07T14:04:36.034Z,0.88
2022-08-07T14:07:09.750Z,0.90
2022-08-07T14:10:02.570Z,0.73
2022-08-07T14:12:31.660Z,1.10
2022-08-07T14:15:06.907Z,1.08
2022-08-07T14:18:23.733Z,0.70
2022-08-07T14:20:40.550Z,0.80
2022-08-07T14:23:59.498Z,1.50
2022-08-07T14:26:28.071Z,2.63
2022-08-07T14:29:04.286Z,0.90
2022-08-07T14:31:42.367Z,1.60
2022-08-07T14:34:25.801Z,1.25
2022-08-07T14:36:56.663Z,2.35
2022-08-07T14:40:14.594Z,0.60
2022-08-07T14:42:20.357Z,1.10
2022-08-07T14:44:53.560Z,0.73
2022-08-07T14:47:23.146Z,2.40
2022-08-07T14:52:41.382Z,0.93
2022-08-07T14:55:12.177Z,1.02
2022-08-07T14:57:58.701Z,1.58
2022-08-07T15:00:31.037Z,1.85
2022-08-07T15:02:59.977Z,1.88
2022-08-07T15:05:30.187Z,0.65
2022-08-07T15:08:08.973Z,0.80
2022-08-07T15:10:58.671Z,1.00
2022-08-07T15:13:35.861Z,0.95
2022-08-07T15:16:11.103Z,1.88
2022-08-07T15:21:58.804Z,2.38
2022-08-07T15:25:13.411Z,1.35
2022-08-07T15:27:06.046Z,0.70
2022-08-07T15:32:39.041Z,0.95
2022-08-07T15:35:07.956Z,0.80
2022-08-07T15:38:04.797Z,1.08
2022-08-07T15:40:34.272Z,0.75
2022-08-07T15:43:53.766Z,1.45
2022-08-07T15:46:32.429Z,0.82
2022-08-07T15:54:26.463Z,3.58
2022-08-07T15:56:57.835Z,1.42
2022-08-07T15:59:43.874Z,1.90
2022-08-07T16:02:15.305Z,1.20
2022-08-07T16:04:44.015Z,1.73
2022-08-07T16:08:30.620Z,1.02
2022-08-07T16:10:06.483Z,1.10
2022-08-07T16:12:38.001Z,0.90
2022-08-07T16:15:58.024Z,1.67
2022-08-07T16:19:12.252Z,1.00
2022-08-07T16:22:05.168Z,1.25
2022-08-07T16:24:52.845Z,1.10
2022-08-07T16:27:40.223Z,1.13
2022-08-07T16:30:30.533Z,2.97
2022-08-07T16:34:02.799Z,1.73
2022-08-07T16:36:20.778Z,1.10
2022-08-07T16:39:16.543Z,1.80
2022-08-07T16:42:17.747Z,2.22
2022-08-07T16:45:15.462Z,1.13
2022-08-07T16:48:28.642Z,2.30
2022-08-07T16:51:54.227Z,1.05
2022-08-07T16:54:23.403Z,1.45
2022-08-07T16:57:06.345Z,2.20
2022-08-07T17:00:03.481Z,2.40
2022-08-07T17:02:55.335Z,1.42
2022-08-07T17:06:28.195Z,1.08
2022-08-07T17:09:09.233Z,1.65
2022-08-07T17:12:35.662Z,2.05
2022-08-07T17:15:17.925Z,1.08
2022-08-07T17:17:49.753Z,1.33
2022-08-07T17:20:32.958Z,1.75
2022-08-07T17:23:03.067Z,1.02
2022-08-07T17:25:52.096Z,0.80
2022-08-07T17:28:31.210Z,1.00
2022-08-07T17:31:20.951Z,0.90
2022-08-07T17:34:18.185Z,1.00
2022-08-07T17:37:08.847Z,2.03
2022-08-07T17:39:53.034Z,0.80
2022-08-07T17:42:36.183Z,1.67
2022-08-07T17:45:27.285Z,3.03
2022-08-07T17:48:31.118Z,0.73
2022-08-07T17:51:14.141Z,1.08
2022-08-07T17:54:11.346Z,1.83
2022-08-07T17:56:49.692Z,0.80
2022-08-07T17:59:21.887Z,1.00
2022-08-07T18:02:10.901Z,1.55
2022-08-07T18:05:21.809Z,2.67
2022-08-07T18:08:25.107Z,2.30
2022-08-07T18:12:07.333Z,1.10
2022-08-07T18:13:55.661Z,1.30
2022-08-07T18:16:58.149Z,1.13
2022-08-07T18:21:12.802Z,1.50
2022-08-07T18:22:26.854Z,2.65
2022-08-07T18:25:24.197Z,1.35
2022-08-07T18:28:34.175Z,3.05
2022-08-07T18:31:07.541Z,1.00
2022-08-07T18:34:37.562Z,1.75
2022-08-07T18:38:59.367Z,5.05
2022-08-07T18:40:42.393Z,2.95
2022-08-07T18:43:16.769Z,1.77
2022-08-07T18:46:27.105Z,1.15
2022-08-07T18:50:29.915Z,1.75
2022-08-07T18:52:34.719Z,3.05
2022-08-07T18:55:42.645Z,1.17
2022-08-07T18:58:16.857Z,1.10
2022-08-07T19:00:55.058Z,1.17
2022-08-07T19:03:37.844Z,1.02
2022-08-07T19:06:16.539Z,1.27
2022-08-07T19:08:58.527Z,0.80
2022-08-07T19:12:04.994Z,1.35
2022-08-07T19:14:52.694Z,1.02
2022-08-07T19:18:01.670Z,1.52
2022-08-07T19:20:28.944Z,1.33
2022-08-07T19:23:18.200Z,2.20
2022-08-07T19:26:25.026Z,1.10
2022-08-07T19:30:55.161Z,1.08
2022-08-07T19:31:43.677Z,1.42
2022-08-07T19:34:13.797Z,1.45
2022-08-07T19:37:17.078Z,1.00
2022-08-07T19:39:56.421Z,1.85
2022-08-07T19:42:31.923Z,1.75
2022-08-07T19:45:12.074Z,1.05
2022-08-07T19:47:42.193Z,2.13
2022-08-07T19:50:41.114Z,1.92
2022-08-07T19:52:58.659Z,1.40
2022-08-07T19:55:57.615Z,1.15
2022-08-07T19:58:16.211Z,1.52
2022-08-07T20:00:54.060Z,1.55
2022-08-07T20:03:35.629Z,1.17
2022-08-07T20:06:04.748Z,4.50
2022-08-07T20:08:35.387Z,2.33
2022-08-07T20:11:10.549Z,1.77
2022-08-07T20:13:42.895Z,1.23
2022-08-07T20:16:34.874Z,1.20
2022-08-07T20:19:05.806Z,1.20
2022-08-07T20:21:42.160Z,1.70
2022-08-07T20:24:21.266Z,2.13
2022-08-07T20:26:52.145Z,3.47
2022-08-07T20:29:48.883Z,1.90
2022-08-07T20:32:22.853Z,1.80
2022-08-07T20:34:56.226Z,4.22
2022-08-07T20:37:29.842Z,1.30
2022-08-07T20:40:02.412Z,1.42
2022-08-07T20:42:33.239Z,1.70
2022-08-07T20:45:04.332Z,2.92
2022-08-07T20:47:56.061Z,1.65
2022-08-07T20:50:21.383Z,1.70
2022-08-07T20:52:51.080Z,1.55
2022-08-07T20:55:23.931Z,1.55
2022-08-07T20:58:02.398Z,2.00
2022-08-07T21:00:44.052Z,3.42
2022-08-07T21:03:16.803Z,3.75
2022-08-07T21:05:56.234Z,2.53
2022-08-07T21:08:37.915Z,2.92
2022-08-07T21:11:10.963Z,1.90
2022-08-07T21:13:57.919Z,2.08
2022-08-07T21:16:31.044Z,1.50
2022-08-07T21:19:00.040Z,1.63
2022-08-07T21:21:30.431Z,2.65
2022-08-07T21:24:06.531Z,1.85
2022-08-07T21:26:50.916Z,2.20
2022-08-07T21:29:22.131Z,4.07
2022-08-07T21:32:46.701Z,2.10
2022-08-07T21:34:50.868Z,2.00
2022-08-07T21:37:58.833Z,1.65
2022-08-07T21:40:38.419Z,1.85
2022-08-07T21:43:13.844Z,1.83
2022-08-07T21:46:08.083Z,3.60
2022-08-07T21:48:42.439Z,1.75
2022-08-07T21:51:25.020Z,2.17
2022-08-07T21:53:54.343Z,1.88
2022-08-07T21:56:36.354Z,1.90
2022-08-07T21:59:36.228Z,2.00
2022-08-07T22:02:22.173Z,2.00
2022-08-07T22:04:53.887Z,1.70
2022-08-07T22:07:31.836Z,1.70
2022-08-07T22:10:12.325Z,1.52
2022-08-07T22:12:41.624Z,2.75
2022-08-07T22:16:39.963Z,2.00
2022-08-07T22:18:14.372Z,3.22
2022-08-07T22:20:55.848Z,1.80
2022-08-07T22:23:43.578Z,1.60
2022-08-07T22:26:13.870Z,2.08
2022-08-07T22:28:55.824Z,1.90
2022-08-07T22:32:05.370Z,1.63
2022-08-07T22:34:49.728Z,2.53
2022-08-07T22:38:03.834Z,2.10
2022-08-07T22:40:35.718Z,2.30
2022-08-07T22:43:08.264Z,1.90
2022-08-07T22:46:41.048Z,4.40
2022-08-07T22:48:55.454Z,2.30
2022-08-07T22:51:36.419Z,1.88
2022-08-07T22:54:16.168Z,1.77
2022-08-07T22:57:19.527Z,2.40
2022-08-07T22:59:53.191Z,1.55
2022-08-07T23:02:27.367Z,2.17
2022-08-07T23:06:06.919Z,2.15
2022-08-07T23:08:23.923Z,3.55
2022-08-07T23:10:54.560Z,2.53
2022-08-07T23:13:49.229Z,1.67
2022-08-07T23:16:44.389Z,2.10
2022-08-07T23:19:57.806Z,2.20
2022-08-07T23:22:32.625Z,2.17
2022-08-07T23:25:22.395Z,2.80
2022-08-07T23:28:28.433Z,2.00
2022-08-07T23:31:06.557Z,1.88
2022-08-07T23:34:36.093Z,1.75
2022-08-07T23:37:19.372Z,2.22
2022-08-07T23:39:58.684Z,2.05
2022-08-07T23:43:02.947Z,1.77
2022-08-07T23:46:03.691Z,1.90
2022-08-07T23:48:48.688Z,2.88
2022-08-07T23:53:00.187Z,3.15
2022-08-07T23:54:44.150Z,3.03
2022-08-07T23:57:22.693Z,2.22
